sensor_id;sensor_type;location;lat;lon;timestamp;temperature;humidity
9329;DHT22;4703;48.748;19.142;2022-07-05T00:00:23;24.10;67.90
9329;DHT22;4703;48.748;19.142;2022-07-05T00:02:50;24.20;67.90
9329;DHT22;4703;48.748;19.142;2022-07-05T00:05:17;24.20;68.20
9329;DHT22;4703;48.748;19.142;2022-07-05T00:07:44;24.10;68.90
9329;DHT22;4703;48.748;19.142;2022-07-05T00:10:11;24.10;68.60
9329;DHT22;4703;48.748;19.142;2022-07-05T00:12:38;24.10;68.40
9329;DHT22;4703;48.748;19.142;2022-07-05T00:15:06;24.00;68.20
9329;DHT22;4703;48.748;19.142;2022-07-05T00:17:34;24.00;68.90
9329;DHT22;4703;48.748;19.142;2022-07-05T00:20:01;23.90;69.10
9329;DHT22;4703;48.748;19.142;2022-07-05T00:22:29;23.80;69.30
9329;DHT22;4703;48.748;19.142;2022-07-05T00:24:56;23.80;69.30
9329;DHT22;4703;48.748;19.142;2022-07-05T00:27:23;23.70;70.80
9329;DHT22;4703;48.748;19.142;2022-07-05T00:29:51;23.80;70.00
9329;DHT22;4703;48.748;19.142;2022-07-05T00:32:18;23.80;70.10
9329;DHT22;4703;48.748;19.142;2022-07-05T00:34:45;23.80;71.50
9329;DHT22;4703;48.748;19.142;2022-07-05T00:37:12;23.80;71.70
9329;DHT22;4703;48.748;19.142;2022-07-05T00:39:39;23.80;70.80
9329;DHT22;4703;48.748;19.142;2022-07-05T00:42:07;23.80;70.60
9329;DHT22;4703;48.748;19.142;2022-07-05T00:44:36;23.80;71.70
9329;DHT22;4703;48.748;19.142;2022-07-05T00:47:07;23.70;72.00
9329;DHT22;4703;48.748;19.142;2022-07-05T00:49:38;23.70;72.00
9329;DHT22;4703;48.748;19.142;2022-07-05T00:52:06;23.70;72.60
9329;DHT22;4703;48.748;19.142;2022-07-05T00:54:49;23.60;72.70
9329;DHT22;4703;48.748;19.142;2022-07-05T00:57:19;23.50;72.90
9329;DHT22;4703;48.748;19.142;2022-07-05T00:59:49;23.60;72.60
9329;DHT22;4703;48.748;19.142;2022-07-05T01:02:17;23.60;72.50
9329;DHT22;4703;48.748;19.142;2022-07-05T01:04:48;23.50;73.30
9329;DHT22;4703;48.748;19.142;2022-07-05T01:07:21;23.40;72.50
9329;DHT22;4703;48.748;19.142;2022-07-05T01:09:48;23.60;73.80
9329;DHT22;4703;48.748;19.142;2022-07-05T01:12:16;23.40;73.30
9329;DHT22;4703;48.748;19.142;2022-07-05T01:14:45;23.40;73.80
9329;DHT22;4703;48.748;19.142;2022-07-05T01:17:13;23.30;73.70
9329;DHT22;4703;48.748;19.142;2022-07-05T01:19:41;23.40;71.80
9329;DHT22;4703;48.748;19.142;2022-07-05T01:22:16;23.40;72.90
9329;DHT22;4703;48.748;19.142;2022-07-05T01:24:46;23.50;71.40
9329;DHT22;4703;48.748;19.142;2022-07-05T01:27:15;23.50;72.10
9329;DHT22;4703;48.748;19.142;2022-07-05T01:29:43;23.40;72.50
9329;DHT22;4703;48.748;19.142;2022-07-05T01:32:10;23.30;72.80
9329;DHT22;4703;48.748;19.142;2022-07-05T01:34:39;23.20;72.90
9329;DHT22;4703;48.748;19.142;2022-07-05T01:37:08;23.20;73.60
9329;DHT22;4703;48.748;19.142;2022-07-05T01:39:36;23.10;74.10
9329;DHT22;4703;48.748;19.142;2022-07-05T01:42:03;23.00;74.30
9329;DHT22;4703;48.748;19.142;2022-07-05T01:44:30;23.00;75.40
9329;DHT22;4703;48.748;19.142;2022-07-05T01:47:02;23.00;75.40
9329;DHT22;4703;48.748;19.142;2022-07-05T01:49:34;22.90;75.60
9329;DHT22;4703;48.748;19.142;2022-07-05T01:52:08;22.80;75.70
9329;DHT22;4703;48.748;19.142;2022-07-05T01:54:37;22.80;75.60
9329;DHT22;4703;48.748;19.142;2022-07-05T01:57:05;22.80;74.40
9329;DHT22;4703;48.748;19.142;2022-07-05T01:59:33;22.80;75.30
9329;DHT22;4703;48.748;19.142;2022-07-05T02:02:02;22.80;75.30
9329;DHT22;4703;48.748;19.142;2022-07-05T02:04:34;22.80;76.40
9329;DHT22;4703;48.748;19.142;2022-07-05T02:07:06;22.70;76.30
9329;DHT22;4703;48.748;19.142;2022-07-05T02:09:34;22.70;76.50
9329;DHT22;4703;48.748;19.142;2022-07-05T02:12:03;22.60;77.10
9329;DHT22;4703;48.748;19.142;2022-07-05T02:14:31;22.60;77.50
9329;DHT22;4703;48.748;19.142;2022-07-05T02:16:58;22.60;77.70
9329;DHT22;4703;48.748;19.142;2022-07-05T02:19:25;22.60;77.90
9329;DHT22;4703;48.748;19.142;2022-07-05T02:21:52;22.60;78.70
9329;DHT22;4703;48.748;19.142;2022-07-05T02:24:20;22.50;77.90
9329;DHT22;4703;48.748;19.142;2022-07-05T02:26:48;22.50;78.40
9329;DHT22;4703;48.748;19.142;2022-07-05T02:29:15;22.50;78.40
9329;DHT22;4703;48.748;19.142;2022-07-05T02:31:42;22.50;79.20
9329;DHT22;4703;48.748;19.142;2022-07-05T02:34:09;22.40;78.80
9329;DHT22;4703;48.748;19.142;2022-07-05T02:36:36;22.40;79.80
9329;DHT22;4703;48.748;19.142;2022-07-05T02:39:03;22.40;79.60
9329;DHT22;4703;48.748;19.142;2022-07-05T02:41:30;22.40;79.60
9329;DHT22;4703;48.748;19.142;2022-07-05T02:43:57;22.40;79.20
9329;DHT22;4703;48.748;19.142;2022-07-05T02:46:24;22.50;79.50
9329;DHT22;4703;48.748;19.142;2022-07-05T02:48:51;22.50;78.70
9329;DHT22;4703;48.748;19.142;2022-07-05T02:51:24;22.50;78.10
9329;DHT22;4703;48.748;19.142;2022-07-05T02:53:52;22.50;79.30
9329;DHT22;4703;48.748;19.142;2022-07-05T02:56:19;22.40;78.60
9329;DHT22;4703;48.748;19.142;2022-07-05T02:58:46;22.40;79.00
9329;DHT22;4703;48.748;19.142;2022-07-05T03:01:13;22.40;79.10
9329;DHT22;4703;48.748;19.142;2022-07-05T03:03:40;22.40;81.00
9329;DHT22;4703;48.748;19.142;2022-07-05T03:06:07;22.30;80.90
9329;DHT22;4703;48.748;19.142;2022-07-05T03:08:35;22.30;80.30
9329;DHT22;4703;48.748;19.142;2022-07-05T03:11:02;22.30;79.70
9329;DHT22;4703;48.748;19.142;2022-07-05T03:13:29;22.30;80.30
9329;DHT22;4703;48.748;19.142;2022-07-05T03:15:56;22.30;80.00
9329;DHT22;4703;48.748;19.142;2022-07-05T03:18:23;22.30;80.10
9329;DHT22;4703;48.748;19.142;2022-07-05T03:20:50;22.30;80.70
9329;DHT22;4703;48.748;19.142;2022-07-05T03:23:17;22.30;81.00
9329;DHT22;4703;48.748;19.142;2022-07-05T03:25:44;22.30;79.90
9329;DHT22;4703;48.748;19.142;2022-07-05T03:28:11;22.30;81.00
9329;DHT22;4703;48.748;19.142;2022-07-05T03:30:38;22.30;80.60
9329;DHT22;4703;48.748;19.142;2022-07-05T03:33:05;22.30;80.40
9329;DHT22;4703;48.748;19.142;2022-07-05T03:35:32;22.20;82.00
9329;DHT22;4703;48.748;19.142;2022-07-05T03:37:59;22.20;82.30
9329;DHT22;4703;48.748;19.142;2022-07-05T03:40:26;22.20;81.40
9329;DHT22;4703;48.748;19.142;2022-07-05T03:42:53;22.20;81.30
9329;DHT22;4703;48.748;19.142;2022-07-05T03:45:20;22.20;81.30
9329;DHT22;4703;48.748;19.142;2022-07-05T03:47:47;22.20;79.40
9329;DHT22;4703;48.748;19.142;2022-07-05T03:50:14;22.20;80.00
9329;DHT22;4703;48.748;19.142;2022-07-05T03:52:41;22.20;81.10
9329;DHT22;4703;48.748;19.142;2022-07-05T03:55:08;22.30;81.70
9329;DHT22;4703;48.748;19.142;2022-07-05T03:57:35;22.30;81.90
9329;DHT22;4703;48.748;19.142;2022-07-05T04:00:03;22.30;82.30
9329;DHT22;4703;48.748;19.142;2022-07-05T04:02:31;22.30;82.70
9329;DHT22;4703;48.748;19.142;2022-07-05T04:04:58;22.40;83.30
9329;DHT22;4703;48.748;19.142;2022-07-05T04:07:25;22.30;82.30
9329;DHT22;4703;48.748;19.142;2022-07-05T04:09:52;22.30;82.70
9329;DHT22;4703;48.748;19.142;2022-07-05T04:12:19;22.40;83.70
9329;DHT22;4703;48.748;19.142;2022-07-05T04:14:46;22.40;83.40
9329;DHT22;4703;48.748;19.142;2022-07-05T04:17:13;22.40;83.60
9329;DHT22;4703;48.748;19.142;2022-07-05T04:19:40;22.40;83.50
9329;DHT22;4703;48.748;19.142;2022-07-05T04:22:07;22.50;81.80
9329;DHT22;4703;48.748;19.142;2022-07-05T04:24:34;22.50;83.70
9329;DHT22;4703;48.748;19.142;2022-07-05T04:27:21;22.50;82.00
9329;DHT22;4703;48.748;19.142;2022-07-05T04:29:48;22.50;82.70
9329;DHT22;4703;48.748;19.142;2022-07-05T04:32:15;22.40;83.80
9329;DHT22;4703;48.748;19.142;2022-07-05T04:34:42;22.60;82.00
9329;DHT22;4703;48.748;19.142;2022-07-05T04:37:10;22.50;84.50
9329;DHT22;4703;48.748;19.142;2022-07-05T04:39:37;22.50;85.80
9329;DHT22;4703;48.748;19.142;2022-07-05T04:42:04;22.50;86.80
9329;DHT22;4703;48.748;19.142;2022-07-05T04:44:31;22.60;87.20
9329;DHT22;4703;48.748;19.142;2022-07-05T04:46:58;22.60;88.70
9329;DHT22;4703;48.748;19.142;2022-07-05T04:49:25;22.60;86.90
9329;DHT22;4703;48.748;19.142;2022-07-05T04:51:52;22.60;84.80
9329;DHT22;4703;48.748;19.142;2022-07-05T04:54:19;22.50;82.60
9329;DHT22;4703;48.748;19.142;2022-07-05T04:56:46;22.50;83.10
9329;DHT22;4703;48.748;19.142;2022-07-05T04:59:13;22.50;82.40
9329;DHT22;4703;48.748;19.142;2022-07-05T05:01:40;22.40;81.20
9329;DHT22;4703;48.748;19.142;2022-07-05T05:04:07;22.40;82.60
9329;DHT22;4703;48.748;19.142;2022-07-05T05:06:34;22.40;83.90
9329;DHT22;4703;48.748;19.142;2022-07-05T05:09:02;22.40;85.30
9329;DHT22;4703;48.748;19.142;2022-07-05T05:11:29;22.30;85.20
9329;DHT22;4703;48.748;19.142;2022-07-05T05:13:56;22.40;88.80
9329;DHT22;4703;48.748;19.142;2022-07-05T05:16:23;22.30;90.90
9329;DHT22;4703;48.748;19.142;2022-07-05T05:18:50;22.40;92.70
9329;DHT22;4703;48.748;19.142;2022-07-05T05:21:17;22.20;94.80
9329;DHT22;4703;48.748;19.142;2022-07-05T05:23:44;22.20;96.60
9329;DHT22;4703;48.748;19.142;2022-07-05T05:26:11;22.50;97.80
9329;DHT22;4703;48.748;19.142;2022-07-05T05:28:38;22.20;98.30
9329;DHT22;4703;48.748;19.142;2022-07-05T05:31:06;22.30;98.60
9329;DHT22;4703;48.748;19.142;2022-07-05T05:33:33;22.30;99.10
9329;DHT22;4703;48.748;19.142;2022-07-05T05:36:01;22.30;99.50
9329;DHT22;4703;48.748;19.142;2022-07-05T05:38:28;22.40;99.80
9329;DHT22;4703;48.748;19.142;2022-07-05T05:40:55;22.40;99.70
9329;DHT22;4703;48.748;19.142;2022-07-05T05:43:22;22.50;99.90
9329;DHT22;4703;48.748;19.142;2022-07-05T05:45:49;22.40;99.90
9329;DHT22;4703;48.748;19.142;2022-07-05T05:48:16;22.50;99.90
9329;DHT22;4703;48.748;19.142;2022-07-05T05:50:43;22.50;99.90
9329;DHT22;4703;48.748;19.142;2022-07-05T05:53:10;22.50;99.90
9329;DHT22;4703;48.748;19.142;2022-07-05T05:55:37;22.50;99.90
9329;DHT22;4703;48.748;19.142;2022-07-05T05:58:18;22.40;99.90
9329;DHT22;4703;48.748;19.142;2022-07-05T06:00:50;22.40;99.90
9329;DHT22;4703;48.748;19.142;2022-07-05T06:03:23;22.30;99.90
9329;DHT22;4703;48.748;19.142;2022-07-05T06:05:51;22.30;99.90
9329;DHT22;4703;48.748;19.142;2022-07-05T06:08:18;22.20;99.90
9329;DHT22;4703;48.748;19.142;2022-07-05T06:10:46;22.90;99.90
9329;DHT22;4703;48.748;19.142;2022-07-05T06:13:21;22.20;99.90
9329;DHT22;4703;48.748;19.142;2022-07-05T06:15:48;22.20;99.90
9329;DHT22;4703;48.748;19.142;2022-07-05T06:18:15;22.10;99.90
9329;DHT22;4703;48.748;19.142;2022-07-05T06:20:42;22.10;99.90
9329;DHT22;4703;48.748;19.142;2022-07-05T06:23:09;22.10;99.90
9329;DHT22;4703;48.748;19.142;2022-07-05T06:25:36;22.00;99.90
9329;DHT22;4703;48.748;19.142;2022-07-05T06:28:08;22.00;99.90
9329;DHT22;4703;48.748;19.142;2022-07-05T06:30:37;21.90;99.90
9329;DHT22;4703;48.748;19.142;2022-07-05T06:33:05;21.90;99.90
9329;DHT22;4703;48.748;19.142;2022-07-05T06:35:32;21.90;99.90
9329;DHT22;4703;48.748;19.142;2022-07-05T06:38:05;21.90;99.90
9329;DHT22;4703;48.748;19.142;2022-07-05T06:40:40;21.90;99.90
9329;DHT22;4703;48.748;19.142;2022-07-05T06:43:11;21.90;99.90
9329;DHT22;4703;48.748;19.142;2022-07-05T06:45:40;21.90;99.90
9329;DHT22;4703;48.748;19.142;2022-07-05T06:48:09;21.90;99.90
9329;DHT22;4703;48.748;19.142;2022-07-05T06:50:39;21.90;99.90
9329;DHT22;4703;48.748;19.142;2022-07-05T06:53:08;21.80;99.90
9329;DHT22;4703;48.748;19.142;2022-07-05T06:55:36;21.80;99.90
9329;DHT22;4703;48.748;19.142;2022-07-05T06:58:06;21.70;99.90
9329;DHT22;4703;48.748;19.142;2022-07-05T07:00:42;21.70;99.90
9329;DHT22;4703;48.748;19.142;2022-07-05T07:03:30;21.60;99.90
9329;DHT22;4703;48.748;19.142;2022-07-05T07:06:17;21.60;99.90
9329;DHT22;4703;48.748;19.142;2022-07-05T07:08:45;21.60;99.90
9329;DHT22;4703;48.748;19.142;2022-07-05T07:11:32;21.60;99.90
9329;DHT22;4703;48.748;19.142;2022-07-05T07:13:59;21.50;99.90
9329;DHT22;4703;48.748;19.142;2022-07-05T07:16:26;21.50;99.90
9329;DHT22;4703;48.748;19.142;2022-07-05T07:18:53;21.60;99.90
9329;DHT22;4703;48.748;19.142;2022-07-05T07:21:40;21.50;99.90
9329;DHT22;4703;48.748;19.142;2022-07-05T07:24:08;21.60;99.90
9329;DHT22;4703;48.748;19.142;2022-07-05T07:26:35;21.50;99.90
9329;DHT22;4703;48.748;19.142;2022-07-05T07:29:21;21.50;99.90
9329;DHT22;4703;48.748;19.142;2022-07-05T07:31:49;21.50;99.90
9329;DHT22;4703;48.748;19.142;2022-07-05T07:34:16;21.50;99.90
9329;DHT22;4703;48.748;19.142;2022-07-05T07:36:43;21.50;99.90
9329;DHT22;4703;48.748;19.142;2022-07-05T07:39:10;21.50;99.90
9329;DHT22;4703;48.748;19.142;2022-07-05T07:41:38;21.60;99.90
9329;DHT22;4703;48.748;19.142;2022-07-05T07:44:05;21.60;99.90
9329;DHT22;4703;48.748;19.142;2022-07-05T07:46:32;21.70;99.90
9329;DHT22;4703;48.748;19.142;2022-07-05T07:48:59;21.80;99.90
9329;DHT22;4703;48.748;19.142;2022-07-05T07:51:27;21.90;99.90
9329;DHT22;4703;48.748;19.142;2022-07-05T07:53:54;22.00;99.90
9329;DHT22;4703;48.748;19.142;2022-07-05T07:56:39;22.10;99.90
9329;DHT22;4703;48.748;19.142;2022-07-05T07:59:07;22.20;99.90
9329;DHT22;4703;48.748;19.142;2022-07-05T08:01:34;22.30;99.90
9329;DHT22;4703;48.748;19.142;2022-07-05T08:04:09;22.30;99.90
9329;DHT22;4703;48.748;19.142;2022-07-05T08:06:38;22.40;99.90
9329;DHT22;4703;48.748;19.142;2022-07-05T08:09:05;22.50;99.90
9329;DHT22;4703;48.748;19.142;2022-07-05T08:11:41;22.60;99.90
9329;DHT22;4703;48.748;19.142;2022-07-05T08:14:08;22.60;99.90
9329;DHT22;4703;48.748;19.142;2022-07-05T08:16:35;22.60;99.90
9329;DHT22;4703;48.748;19.142;2022-07-05T08:19:02;22.60;99.90
9329;DHT22;4703;48.748;19.142;2022-07-05T08:21:48;22.60;99.90
9329;DHT22;4703;48.748;19.142;2022-07-05T08:24:16;22.60;99.90
9329;DHT22;4703;48.748;19.142;2022-07-05T08:26:43;22.60;99.90
9329;DHT22;4703;48.748;19.142;2022-07-05T08:29:12;22.60;99.90
9329;DHT22;4703;48.748;19.142;2022-07-05T08:31:50;22.50;99.90
9329;DHT22;4703;48.748;19.142;2022-07-05T08:34:19;22.50;99.90
9329;DHT22;4703;48.748;19.142;2022-07-05T08:36:46;22.50;99.90
9329;DHT22;4703;48.748;19.142;2022-07-05T08:39:14;22.50;99.90
9329;DHT22;4703;48.748;19.142;2022-07-05T08:41:43;22.50;99.90
9329;DHT22;4703;48.748;19.142;2022-07-05T08:44:22;22.40;99.90
9329;DHT22;4703;48.748;19.142;2022-07-05T08:46:50;22.40;99.90
9329;DHT22;4703;48.748;19.142;2022-07-05T08:49:27;22.30;99.90
9329;DHT22;4703;48.748;19.142;2022-07-05T08:51:55;22.40;99.90
9329;DHT22;4703;48.748;19.142;2022-07-05T08:54:23;22.30;99.90
9329;DHT22;4703;48.748;19.142;2022-07-05T08:56:51;22.30;99.90
9329;DHT22;4703;48.748;19.142;2022-07-05T08:59:37;22.30;99.90
9329;DHT22;4703;48.748;19.142;2022-07-05T09:02:05;22.30;99.90
9329;DHT22;4703;48.748;19.142;2022-07-05T09:04:35;22.30;99.90
9329;DHT22;4703;48.748;19.142;2022-07-05T09:07:05;22.30;99.90
9329;DHT22;4703;48.748;19.142;2022-07-05T09:09:38;22.40;99.90
9329;DHT22;4703;48.748;19.142;2022-07-05T09:12:12;22.40;99.90
9329;DHT22;4703;48.748;19.142;2022-07-05T09:14:52;22.40;99.90
9329;DHT22;4703;48.748;19.142;2022-07-05T09:17:20;20.90;99.90
9329;DHT22;4703;48.748;19.142;2022-07-05T09:20:10;22.50;99.90
9329;DHT22;4703;48.748;19.142;2022-07-05T09:22:52;22.50;99.90
9329;DHT22;4703;48.748;19.142;2022-07-05T09:25:23;22.50;99.90
9329;DHT22;4703;48.748;19.142;2022-07-05T09:27:57;22.50;99.90
9329;DHT22;4703;48.748;19.142;2022-07-05T09:30:39;22.50;99.90
9329;DHT22;4703;48.748;19.142;2022-07-05T09:33:14;22.60;99.90
9329;DHT22;4703;48.748;19.142;2022-07-05T09:35:43;22.60;99.90
9329;DHT22;4703;48.748;19.142;2022-07-05T09:38:27;22.60;99.90
9329;DHT22;4703;48.748;19.142;2022-07-05T09:40:57;22.60;99.90
9329;DHT22;4703;48.748;19.142;2022-07-05T09:43:26;22.60;99.90
9329;DHT22;4703;48.748;19.142;2022-07-05T09:46:02;22.60;99.90
9329;DHT22;4703;48.748;19.142;2022-07-05T09:48:32;22.60;99.90
9329;DHT22;4703;48.748;19.142;2022-07-05T09:51:12;22.60;99.90
9329;DHT22;4703;48.748;19.142;2022-07-05T09:54:03;22.60;99.90
9329;DHT22;4703;48.748;19.142;2022-07-05T09:56:46;22.60;99.90
9329;DHT22;4703;48.748;19.142;2022-07-05T09:59:16;22.60;99.90
9329;DHT22;4703;48.748;19.142;2022-07-05T10:01:48;22.60;99.90
9329;DHT22;4703;48.748;19.142;2022-07-05T10:04:15;22.60;99.90
9329;DHT22;4703;48.748;19.142;2022-07-05T10:06:43;22.70;99.90
9329;DHT22;4703;48.748;19.142;2022-07-05T10:09:11;22.90;99.90
9329;DHT22;4703;48.748;19.142;2022-07-05T10:11:44;22.80;99.90
9329;DHT22;4703;48.748;19.142;2022-07-05T10:14:17;22.80;99.90
9329;DHT22;4703;48.748;19.142;2022-07-05T10:16:50;22.90;99.90
9329;DHT22;4703;48.748;19.142;2022-07-05T10:19:20;22.90;99.90
9329;DHT22;4703;48.748;19.142;2022-07-05T10:21:49;23.00;99.90
9329;DHT22;4703;48.748;19.142;2022-07-05T10:24:37;23.10;99.90
9329;DHT22;4703;48.748;19.142;2022-07-05T10:27:06;23.10;99.90
9329;DHT22;4703;48.748;19.142;2022-07-05T10:29:35;23.20;99.90
9329;DHT22;4703;48.748;19.142;2022-07-05T10:32:06;23.30;99.90
9329;DHT22;4703;48.748;19.142;2022-07-05T10:34:35;23.40;99.90
9329;DHT22;4703;48.748;19.142;2022-07-05T10:37:24;23.40;99.90
9329;DHT22;4703;48.748;19.142;2022-07-05T10:40:02;23.50;99.90
9329;DHT22;4703;48.748;19.142;2022-07-05T10:42:40;23.60;99.90
9329;DHT22;4703;48.748;19.142;2022-07-05T10:45:31;23.60;99.90
9329;DHT22;4703;48.748;19.142;2022-07-05T10:48:20;23.60;99.90
9329;DHT22;4703;48.748;19.142;2022-07-05T11:04:10;24.30;99.90
9329;DHT22;4703;48.748;19.142;2022-07-05T11:11:38;24.50;99.90
9329;DHT22;4703;48.748;19.142;2022-07-05T11:16:47;24.80;99.90
9329;DHT22;4703;48.748;19.142;2022-07-05T11:19:17;24.90;99.90
9329;DHT22;4703;48.748;19.142;2022-07-05T11:22:03;25.00;99.90
9329;DHT22;4703;48.748;19.142;2022-07-05T11:27:08;25.30;99.90
9329;DHT22;4703;48.748;19.142;2022-07-05T11:29:49;25.40;99.90
9329;DHT22;4703;48.748;19.142;2022-07-05T11:32:19;25.60;99.90
9329;DHT22;4703;48.748;19.142;2022-07-05T11:34:55;25.60;99.90
9329;DHT22;4703;48.748;19.142;2022-07-05T11:37:57;25.60;99.10
9329;DHT22;4703;48.748;19.142;2022-07-05T11:40:45;25.40;98.80
9329;DHT22;4703;48.748;19.142;2022-07-05T11:43:12;25.30;98.40
9329;DHT22;4703;48.748;19.142;2022-07-05T11:45:39;25.10;98.50
9329;DHT22;4703;48.748;19.142;2022-07-05T11:48:14;25.00;98.50
9329;DHT22;4703;48.748;19.142;2022-07-05T11:50:42;24.90;98.50
9329;DHT22;4703;48.748;19.142;2022-07-05T11:53:09;24.80;99.50
9329;DHT22;4703;48.748;19.142;2022-07-05T11:55:39;24.70;99.70
9329;DHT22;4703;48.748;19.142;2022-07-05T11:58:09;24.70;99.60
9329;DHT22;4703;48.748;19.142;2022-07-05T12:00:37;24.70;99.90
9329;DHT22;4703;48.748;19.142;2022-07-05T12:03:14;24.60;99.90
9329;DHT22;4703;48.748;19.142;2022-07-05T12:05:42;24.60;99.90
9329;DHT22;4703;48.748;19.142;2022-07-05T12:08:09;24.50;99.90
9329;DHT22;4703;48.748;19.142;2022-07-05T12:10:37;24.50;99.90
9329;DHT22;4703;48.748;19.142;2022-07-05T12:13:50;24.40;99.90
9329;DHT22;4703;48.748;19.142;2022-07-05T12:16:17;24.40;99.90
9329;DHT22;4703;48.748;19.142;2022-07-05T12:18:55;24.30;99.50
9329;DHT22;4703;48.748;19.142;2022-07-05T12:21:23;24.30;99.40
9329;DHT22;4703;48.748;19.142;2022-07-05T12:23:51;24.10;99.40
9329;DHT22;4703;48.748;19.142;2022-07-05T12:26:19;24.00;99.20
9329;DHT22;4703;48.748;19.142;2022-07-05T12:28:49;24.00;99.30
9329;DHT22;4703;48.748;19.142;2022-07-05T12:31:18;24.00;99.20
9329;DHT22;4703;48.748;19.142;2022-07-05T12:33:50;23.90;98.70
9329;DHT22;4703;48.748;19.142;2022-07-05T12:36:21;23.80;99.90
9329;DHT22;4703;48.748;19.142;2022-07-05T12:38:58;23.80;99.90
9329;DHT22;4703;48.748;19.142;2022-07-05T12:41:25;23.80;99.80
9329;DHT22;4703;48.748;19.142;2022-07-05T12:43:54;23.70;99.50
9329;DHT22;4703;48.748;19.142;2022-07-05T12:46:39;23.70;99.90
9329;DHT22;4703;48.748;19.142;2022-07-05T12:49:10;23.70;99.80
9329;DHT22;4703;48.748;19.142;2022-07-05T12:51:40;23.70;99.90
9329;DHT22;4703;48.748;19.142;2022-07-05T12:54:22;23.70;99.90
9329;DHT22;4703;48.748;19.142;2022-07-05T12:57:08;23.70;99.90
9329;DHT22;4703;48.748;19.142;2022-07-05T13:00:04;23.60;99.90
9329;DHT22;4703;48.748;19.142;2022-07-05T13:02:40;23.70;99.90
9329;DHT22;4703;48.748;19.142;2022-07-05T13:05:10;23.70;99.90
9329;DHT22;4703;48.748;19.142;2022-07-05T13:07:50;23.50;99.70
9329;DHT22;4703;48.748;19.142;2022-07-05T13:10:22;23.60;99.30
9329;DHT22;4703;48.748;19.142;2022-07-05T13:12:52;23.50;99.90
9329;DHT22;4703;48.748;19.142;2022-07-05T13:15:19;23.60;99.70
9329;DHT22;4703;48.748;19.142;2022-07-05T13:17:46;23.60;99.90
9329;DHT22;4703;48.748;19.142;2022-07-05T13:20:15;23.60;99.70
9329;DHT22;4703;48.748;19.142;2022-07-05T13:22:45;22.70;99.80
9329;DHT22;4703;48.748;19.142;2022-07-05T13:25:15;23.60;99.90
9329;DHT22;4703;48.748;19.142;2022-07-05T13:27:42;23.70;99.90
9329;DHT22;4703;48.748;19.142;2022-07-05T13:30:09;23.70;99.90
9329;DHT22;4703;48.748;19.142;2022-07-05T13:32:37;23.60;99.90
9329;DHT22;4703;48.748;19.142;2022-07-05T13:35:04;23.60;99.20
9329;DHT22;4703;48.748;19.142;2022-07-05T13:37:32;23.50;98.50
9329;DHT22;4703;48.748;19.142;2022-07-05T13:39:59;23.50;98.50
9329;DHT22;4703;48.748;19.142;2022-07-05T13:42:26;23.50;99.10
9329;DHT22;4703;48.748;19.142;2022-07-05T13:44:53;23.50;98.40
9329;DHT22;4703;48.748;19.142;2022-07-05T13:47:20;23.50;98.30
9329;DHT22;4703;48.748;19.142;2022-07-05T13:49:47;23.40;98.60
9329;DHT22;4703;48.748;19.142;2022-07-05T13:52:14;23.40;99.30
9329;DHT22;4703;48.748;19.142;2022-07-05T13:54:41;23.30;99.70
9329;DHT22;4703;48.748;19.142;2022-07-05T13:57:10;23.20;98.70
9329;DHT22;4703;48.748;19.142;2022-07-05T13:59:37;23.10;99.10
9329;DHT22;4703;48.748;19.142;2022-07-05T14:02:05;23.10;98.20
9329;DHT22;4703;48.748;19.142;2022-07-05T14:04:32;23.00;98.00
9329;DHT22;4703;48.748;19.142;2022-07-05T14:07:01;23.00;98.30
9329;DHT22;4703;48.748;19.142;2022-07-05T14:09:28;23.00;98.90
9329;DHT22;4703;48.748;19.142;2022-07-05T14:11:55;23.10;99.20
9329;DHT22;4703;48.748;19.142;2022-07-05T14:14:23;22.80;98.80
9329;DHT22;4703;48.748;19.142;2022-07-05T14:16:50;22.80;98.30
9329;DHT22;4703;48.748;19.142;2022-07-05T14:19:17;22.70;98.40
9329;DHT22;4703;48.748;19.142;2022-07-05T14:21:44;22.90;98.80
9329;DHT22;4703;48.748;19.142;2022-07-05T14:24:14;22.70;98.60
9329;DHT22;4703;48.748;19.142;2022-07-05T14:26:41;22.70;98.60
9329;DHT22;4703;48.748;19.142;2022-07-05T14:29:09;22.70;99.00
9329;DHT22;4703;48.748;19.142;2022-07-05T14:31:36;22.80;99.60
9329;DHT22;4703;48.748;19.142;2022-07-05T14:34:04;22.80;98.70
9329;DHT22;4703;48.748;19.142;2022-07-05T14:36:31;22.80;98.40
9329;DHT22;4703;48.748;19.142;2022-07-05T14:38:58;22.80;98.80
9329;DHT22;4703;48.748;19.142;2022-07-05T14:41:27;22.80;98.60
9329;DHT22;4703;48.748;19.142;2022-07-05T14:43:55;22.80;98.30
9329;DHT22;4703;48.748;19.142;2022-07-05T14:46:23;22.90;99.30
9329;DHT22;4703;48.748;19.142;2022-07-05T14:48:50;22.90;98.90
9329;DHT22;4703;48.748;19.142;2022-07-05T14:51:17;22.90;98.80
9329;DHT22;4703;48.748;19.142;2022-07-05T14:53:45;22.90;98.70
9329;DHT22;4703;48.748;19.142;2022-07-05T14:56:15;22.90;97.70
9329;DHT22;4703;48.748;19.142;2022-07-05T14:58:42;22.90;97.70
9329;DHT22;4703;48.748;19.142;2022-07-05T15:01:10;22.90;97.50
9329;DHT22;4703;48.748;19.142;2022-07-05T15:03:37;22.90;96.40
9329;DHT22;4703;48.748;19.142;2022-07-05T15:06:06;22.80;96.40
9329;DHT22;4703;48.748;19.142;2022-07-05T15:08:33;22.70;96.50
9329;DHT22;4703;48.748;19.142;2022-07-05T15:11:01;22.70;97.00
9329;DHT22;4703;48.748;19.142;2022-07-05T15:13:28;22.60;97.60
9329;DHT22;4703;48.748;19.142;2022-07-05T15:15:56;22.50;97.80
9329;DHT22;4703;48.748;19.142;2022-07-05T15:18:24;22.60;97.60
9329;DHT22;4703;48.748;19.142;2022-07-05T15:20:52;22.60;97.50
9329;DHT22;4703;48.748;19.142;2022-07-05T15:23:26;22.60;98.20
9329;DHT22;4703;48.748;19.142;2022-07-05T15:25:55;22.60;98.60
9329;DHT22;4703;48.748;19.142;2022-07-05T15:28:24;22.70;99.50
9329;DHT22;4703;48.748;19.142;2022-07-05T15:30:51;22.50;99.90
9329;DHT22;4703;48.748;19.142;2022-07-05T15:33:19;22.50;99.90
9329;DHT22;4703;48.748;19.142;2022-07-05T15:35:50;22.50;99.90
9329;DHT22;4703;48.748;19.142;2022-07-05T15:38:19;22.40;99.90
9329;DHT22;4703;48.748;19.142;2022-07-05T15:40:46;22.30;99.90
9329;DHT22;4703;48.748;19.142;2022-07-05T15:43:13;22.30;99.90
9329;DHT22;4703;48.748;19.142;2022-07-05T15:45:41;22.20;99.90
9329;DHT22;4703;48.748;19.142;2022-07-05T15:48:07;22.20;99.90
9329;DHT22;4703;48.748;19.142;2022-07-05T15:50:34;22.10;99.90
9329;DHT22;4703;48.748;19.142;2022-07-05T15:53:02;22.00;99.90
9329;DHT22;4703;48.748;19.142;2022-07-05T15:55:29;22.00;99.90
9329;DHT22;4703;48.748;19.142;2022-07-05T15:57:55;21.90;99.90
9329;DHT22;4703;48.748;19.142;2022-07-05T16:00:23;21.90;99.90
9329;DHT22;4703;48.748;19.142;2022-07-05T16:02:50;21.90;99.90
9329;DHT22;4703;48.748;19.142;2022-07-05T16:05:25;21.90;99.90
9329;DHT22;4703;48.748;19.142;2022-07-05T16:07:52;22.00;99.90
9329;DHT22;4703;48.748;19.142;2022-07-05T16:10:19;21.90;99.90
9329;DHT22;4703;48.748;19.142;2022-07-05T16:13:00;21.90;99.90
9329;DHT22;4703;48.748;19.142;2022-07-05T16:15:27;21.90;99.90
9329;DHT22;4703;48.748;19.142;2022-07-05T16:18:16;21.90;99.90
9329;DHT22;4703;48.748;19.142;2022-07-05T16:20:44;21.80;99.90
9329;DHT22;4703;48.748;19.142;2022-07-05T16:23:12;21.80;99.90
9329;DHT22;4703;48.748;19.142;2022-07-05T16:25:39;21.80;99.90